Time;durP1;ratioP1;P1;durP2;ratioP2;P2;SDS_P1;SDS_P2;PMS_P1;PMS_P2;Temp;Humidity;BMP_temperature;BMP_pressure;BME280_temperature;BME280_humidity;BME280_pressure;Samples;Min_cycle;Max_cycle;Signal;HPM_P1;HPM_P2
2022/06/17 00:00:41;;;;;;;3.60;1.55;;;;;;;;;;10274069;28;20079;-57
2022/06/17 00:05:40;;;;;;;1.85;1.40;;;;;;;;;;10271896;28;20079;-56
2022/06/17 00:10:38;;;;;;;3.17;1.73;;;;;;;;;;10279971;28;20103;-57
2022/06/17 00:15:36;;;;;;;4.85;1.60;;;;;;;;;;10274313;28;20095;-61
2022/06/17 00:20:36;;;;;;;6.25;1.73;;;;;;;;;;10305380;28;20076;-60
2022/06/17 00:25:36;;;;;;;2.50;1.70;;;;;;;;;;10305964;28;20049;-60
2022/06/17 00:30:35;;;;;;;15.98;1.98;;;;;;;;;;10278788;28;20084;-58
2022/06/17 00:35:35;;;;;;;3.67;1.55;;;;;;;;;;10278525;28;20048;-59
2022/06/17 00:40:35;;;;;;;2.35;1.77;;;;;;;;;;10307400;28;20055;-59
2022/06/17 00:45:36;;;;;;;4.88;1.77;;;;;;;;;;10280320;28;20045;-59
2022/06/17 00:50:36;;;;;;;2.35;1.98;;;;;;;;;;10278187;28;20126;-59
2022/06/17 00:55:37;;;;;;;7.75;1.58;;;;;;;;;;10280856;28;20071;-59
2022/06/17 01:00:35;;;;;;;6.40;2.05;;;;;;;;;;10274598;28;20049;-59
2022/06/17 01:05:37;;;;;;;2.25;1.70;;;;;;;;;;10302916;28;20493;-59
2022/06/17 01:10:36;;;;;;;2.03;1.67;;;;;;;;;;10277328;28;20112;-60
2022/06/17 01:15:36;;;;;;;6.15;2.08;;;;;;;;;;10287370;28;20049;-60
2022/06/17 01:20:36;;;;;;;4.10;1.50;;;;;;;;;;10288378;28;20103;-59
2022/06/17 01:25:36;;;;;;;3.35;1.60;;;;;;;;;;10288596;28;20040;-59
2022/06/17 01:30:36;;;;;;;3.10;1.45;;;;;;;;;;10287163;28;20072;-59
2022/06/17 01:35:37;;;;;;;2.65;1.67;;;;;;;;;;10287864;28;20522;-58
2022/06/17 01:40:37;;;;;;;3.30;1.50;;;;;;;;;;10284783;28;20060;-59
2022/06/17 01:45:35;;;;;;;2.88;1.80;;;;;;;;;;10287953;28;20486;-59
2022/06/17 01:50:38;;;;;;;3.45;1.50;;;;;;;;;;10310746;28;20079;-57
2022/06/17 01:55:40;;;;;;;3.25;1.95;;;;;;;;;;10287244;28;20049;-60
2022/06/17 02:00:41;;;;;;;4.78;1.80;;;;;;;;;;10282755;28;20290;-58
2022/06/17 02:05:43;;;;;;;2.67;2.10;;;;;;;;;;10286808;28;20045;-59
2022/06/17 02:10:45;;;;;;;2.95;1.52;;;;;;;;;;10280565;28;20084;-59
2022/06/17 02:15:46;;;;;;;2.08;1.63;;;;;;;;;;10279619;28;20052;-59
2022/06/17 02:21:11;;;;;;;6.60;2.00;;;;;;;;;;10285215;28;20053;-60
2022/06/17 02:26:12;;;;;;;2.40;1.67;;;;;;;;;;10279740;28;20076;-59
2022/06/17 02:31:10;;;;;;;2.17;1.38;;;;;;;;;;10307269;28;20052;-59
2022/06/17 02:36:13;;;;;;;4.35;1.80;;;;;;;;;;10319096;28;20055;-59
2022/06/17 02:41:16;;;;;;;4.18;1.77;;;;;;;;;;10319046;28;20059;-60
2022/06/17 02:46:21;;;;;;;4.25;1.38;;;;;;;;;;10313838;28;20466;-60
2022/06/17 02:51:21;;;;;;;1.83;1.67;;;;;;;;;;10302817;28;20075;-60
2022/06/17 02:56:24;;;;;;;6.80;1.88;;;;;;;;;;10280713;28;20071;-60
2022/06/17 03:01:24;;;;;;;4.05;1.80;;;;;;;;;;10288301;28;20090;-59
2022/06/17 03:06:36;;;;;;;2.83;1.70;;;;;;;;;;10288710;28;20104;-59
2022/06/17 03:11:37;;;;;;;4.85;2.47;;;;;;;;;;10284219;28;20076;-60
2022/06/17 03:16:36;;;;;;;2.05;1.83;;;;;;;;;;10279820;28;20052;-60
2022/06/17 03:21:35;;;;;;;3.22;1.70;;;;;;;;;;10279644;28;20061;-60
2022/06/17 03:26:37;;;;;;;7.22;2.35;;;;;;;;;;10281925;28;20079;-61
2022/06/17 03:31:39;;;;;;;2.85;2.05;;;;;;;;;;10279077;28;20052;-59
2022/06/17 03:36:41;;;;;;;1.65;1.55;;;;;;;;;;10276269;28;20069;-59
2022/06/17 03:41:42;;;;;;;5.18;2.95;;;;;;;;;;10291151;28;20409;-60
2022/06/17 03:46:46;;;;;;;4.20;1.70;;;;;;;;;;10278776;28;20048;-59
2022/06/17 03:51:44;;;;;;;2.90;1.70;;;;;;;;;;10278711;28;20406;-59
2022/06/17 03:56:47;;;;;;;4.03;3.35;;;;;;;;;;10278593;28;20064;-59
2022/06/17 04:01:49;;;;;;;2.88;1.88;;;;;;;;;;10281926;28;20045;-59
2022/06/17 04:06:51;;;;;;;2.20;1.65;;;;;;;;;;10278136;28;20052;-59
2022/06/17 04:11:58;;;;;;;15.93;10.43;;;;;;;;;;10278841;28;20076;-59
2022/06/17 04:17:02;;;;;;;5.40;2.38;;;;;;;;;;10285978;28;20049;-59
2022/06/17 04:22:05;;;;;;;4.47;1.77;;;;;;;;;;10297013;28;20049;-59
2022/06/17 04:27:15;;;;;;;8.00;2.20;;;;;;;;;;10299356;28;20072;-59
2022/06/17 04:32:17;;;;;;;7.00;2.30;;;;;;;;;;10279634;28;20087;-59
2022/06/17 04:37:20;;;;;;;6.90;5.20;;;;;;;;;;10282582;28;20075;-60
2022/06/17 04:42:41;;;;;;;2.97;2.33;;;;;;;;;;10278278;28;20331;-59
2022/06/17 04:47:44;;;;;;;3.25;2.50;;;;;;;;;;10298455;28;20053;-59
2022/06/17 04:53:01;;;;;;;5.55;2.08;;;;;;;;;;10292552;28;20084;-59
2022/06/17 04:58:09;;;;;;;3.85;1.75;;;;;;;;;;10281006;28;20069;-58
2022/06/17 05:03:09;;;;;;;4.72;2.55;;;;;;;;;;10284853;28;20052;-59
2022/06/17 05:08:23;;;;;;;2.40;2.03;;;;;;;;;;10274219;28;20543;-59
2022/06/17 05:13:23;;;;;;;5.95;2.20;;;;;;;;;;10274404;28;20544;-59
2022/06/17 05:18:25;;;;;;;6.38;3.40;;;;;;;;;;10274219;28;20057;-60
2022/06/17 05:23:36;;;;;;;3.50;2.55;;;;;;;;;;10295091;28;20065;-59
2022/06/17 05:28:37;;;;;;;13.23;3.28;;;;;;;;;;10278725;28;20076;-58
2022/06/17 05:33:38;;;;;;;9.80;3.08;;;;;;;;;;10292051;28;20096;-59
2022/06/17 05:38:37;;;;;;;7.55;2.97;;;;;;;;;;10283270;28;20073;-61
2022/06/17 05:43:37;;;;;;;18.92;4.07;;;;;;;;;;10272287;28;20072;-59
2022/06/17 05:48:43;;;;;;;2.75;2.05;;;;;;;;;;10286183;28;20053;-60
2022/06/17 05:53:57;;;;;;;;;;;;;;;;;;10282797;28;20402;-59
2022/06/17 05:59:02;;;;;;;5.60;2.15;;;;;;;;;;10295713;28;19975;-59
2022/06/17 06:04:03;;;;;;;4.70;3.05;;;;;;;;;;10287290;28;20502;-59
2022/06/17 06:09:02;;;;;;;7.18;2.33;;;;;;;;;;10293227;28;20073;-59
2022/06/17 06:14:00;;;;;;;6.95;2.30;;;;;;;;;;10303277;28;20053;-58
2022/06/17 06:19:00;;;;;;;3.58;2.20;;;;;;;;;;10301807;28;20087;-58
2022/06/17 06:23:59;;;;;;;5.18;2.58;;;;;;;;;;10292692;28;20094;-58
2022/06/17 06:29:06;;;;;;;7.35;3.80;;;;;;;;;;10291332;28;20476;-58
2022/06/17 06:34:10;;;;;;;7.47;3.17;;;;;;;;;;10288666;28;20068;-58
2022/06/17 06:39:15;;;;;;;9.68;2.90;;;;;;;;;;10286643;28;20445;-59
2022/06/17 06:44:13;;;;;;;12.80;3.70;;;;;;;;;;10276813;28;20458;-59
2022/06/17 06:49:41;;;;;;;11.48;3.10;;;;;;;;;;10288615;28;20080;-59
2022/06/17 06:54:41;;;;;;;3.83;3.03;;;;;;;;;;10289426;28;20111;-59
2022/06/17 06:59:40;;;;;;;5.63;2.85;;;;;;;;;;10287836;28;20077;-59
2022/06/17 07:04:39;;;;;;;7.13;2.63;;;;;;;;;;10277269;28;20055;-58
2022/06/17 07:09:37;;;;;;;4.70;2.92;;;;;;;;;;10275779;28;20081;-59
2022/06/17 07:14:37;;;;;;;4.10;2.88;;;;;;;;;;10287500;28;20061;-59
2022/06/17 07:19:35;;;;;;;7.72;2.72;;;;;;;;;;10279007;28;20514;-59
2022/06/17 07:24:35;;;;;;;5.65;2.83;;;;;;;;;;10293007;28;20080;-59
2022/06/17 07:29:33;;;;;;;6.18;2.78;;;;;;;;;;10279622;28;20072;-59
2022/06/17 07:34:33;;;;;;;8.98;2.80;;;;;;;;;;10282166;28;20081;-59
2022/06/17 07:44:47;;;;;;;4.40;2.30;;;;;;;;;;10295245;28;20071;-59
2022/06/17 07:49:48;;;;;;;8.10;2.70;;;;;;;;;;10284480;28;20172;-59
2022/06/17 07:54:46;;;;;;;9.38;2.60;;;;;;;;;;10293664;28;20065;-59
2022/06/17 07:59:44;;;;;;;4.07;2.03;;;;;;;;;;10301489;28;20060;-60
2022/06/17 08:04:42;;;;;;;3.25;2.42;;;;;;;;;;10287179;28;20061;-59
2022/06/17 08:09:42;;;;;;;3.45;2.10;;;;;;;;;;10295401;28;20075;-59
2022/06/17 08:14:43;;;;;;;4.57;2.40;;;;;;;;;;10277770;28;20045;-58
2022/06/17 08:19:43;;;;;;;2.40;2.20;;;;;;;;;;10295551;28;20060;-59
2022/06/17 08:24:43;;;;;;;3.92;2.08;;;;;;;;;;10287355;28;20494;-60
2022/06/17 08:29:46;;;;;;;6.43;3.00;;;;;;;;;;10287658;28;20508;-60
2022/06/17 08:34:46;;;;;;;4.78;2.42;;;;;;;;;;10282112;28;20072;-59
2022/06/17 08:39:47;;;;;;;4.72;2.33;;;;;;;;;;10283755;28;20071;-60
2022/06/17 08:44:47;;;;;;;4.53;2.50;;;;;;;;;;10285818;28;20040;-61
2022/06/17 08:49:53;;;;;;;3.38;2.40;;;;;;;;;;10287119;28;20521;-60
2022/06/17 08:54:58;;;;;;;4.45;2.20;;;;;;;;;;10280204;28;20064;-59
2022/06/17 09:00:08;;;;;;;2.35;2.10;;;;;;;;;;10276660;28;20045;-59
2022/06/17 09:05:24;;;;;;;2.75;2.40;;;;;;;;;;10286849;28;20079;-59
2022/06/17 09:10:34;;;;;;;6.35;2.60;;;;;;;;;;10275285;28;20084;-60
2022/06/17 09:15:36;;;;;;;2.63;2.30;;;;;;;;;;10278214;28;20076;-59
2022/06/17 09:20:36;;;;;;;6.07;2.78;;;;;;;;;;10275334;28;20073;-60
2022/06/17 09:25:45;;;;;;;2.33;2.13;;;;;;;;;;10286468;28;20077;-58
2022/06/17 09:30:47;;;;;;;2.58;2.38;;;;;;;;;;10282381;28;20079;-59
2022/06/17 09:35:49;;;;;;;4.03;2.65;;;;;;;;;;10293094;28;20037;-58
2022/06/17 09:40:52;;;;;;;4.82;2.40;;;;;;;;;;10293277;28;20064;-59
2022/06/17 09:45:52;;;;;;;3.30;1.80;;;;;;;;;;10286002;28;20065;-59
2022/06/17 09:50:53;;;;;;;4.45;2.70;;;;;;;;;;10292025;28;20065;-57
2022/06/17 09:55:56;;;;;;;4.38;2.30;;;;;;;;;;10294117;28;20044;-58
2022/06/17 10:00:56;;;;;;;5.22;2.53;;;;;;;;;;10290796;28;20410;-59
2022/06/17 10:06:00;;;;;;;4.63;2.15;;;;;;;;;;10287478;28;20107;-60
2022/06/17 10:11:03;;;;;;;4.30;2.72;;;;;;;;;;10285828;28;20117;-59
2022/06/17 10:21:38;;;;;;;2.88;2.60;;;;;;;;;;10270173;28;20553;-57
2022/06/17 10:26:43;;;;;;;6.55;2.80;;;;;;;;;;10288296;28;20175;-61
2022/06/17 10:31:43;;;;;;;2.95;2.50;;;;;;;;;;10307840;28;20091;-60
2022/06/17 10:36:43;;;;;;;3.58;2.47;;;;;;;;;;10284594;28;20067;-59
2022/06/17 10:41:43;;;;;;;2.28;1.98;;;;;;;;;;10288205;28;20048;-59
2022/06/17 10:46:44;;;;;;;6.20;2.28;;;;;;;;;;10284685;28;20072;-59
2022/06/17 10:51:43;;;;;;;4.72;2.50;;;;;;;;;;10281269;28;20079;-59
2022/06/17 10:56:47;;;;;;;6.63;2.50;;;;;;;;;;10282184;28;20056;-59
2022/06/17 11:01:52;;;;;;;2.72;2.28;;;;;;;;;;10277955;28;20122;-59
2022/06/17 11:06:53;;;;;;;2.60;2.40;;;;;;;;;;10276388;28;20494;-59
2022/06/17 11:12:05;;;;;;;3.00;2.40;;;;;;;;;;10277157;28;20107;-60
2022/06/17 11:17:12;;;;;;;2.83;2.47;;;;;;;;;;10280494;28;20073;-61
2022/06/17 11:22:18;;;;;;;5.65;2.30;;;;;;;;;;10287096;28;20085;-59
2022/06/17 11:27:23;;;;;;;3.97;2.60;;;;;;;;;;10283491;28;20426;-59
2022/06/17 11:32:31;;;;;;;2.67;2.47;;;;;;;;;;10280815;28;20084;-59
2022/06/17 11:37:31;;;;;;;3.60;2.80;;;;;;;;;;10280511;28;20529;-59
2022/06/17 11:42:31;;;;;;;3.58;2.70;;;;;;;;;;10282218;28;20544;-59
2022/06/17 11:47:31;;;;;;;3.55;2.10;;;;;;;;;;10279967;28;20115;-60
2022/06/17 11:52:35;;;;;;;4.28;2.17;;;;;;;;;;10280071;28;20069;-60
2022/06/17 11:57:36;;;;;;;2.95;2.67;;;;;;;;;;10279262;28;20095;-60
2022/06/17 12:02:34;;;;;;;3.42;3.10;;;;;;;;;;10279641;28;20529;-60
2022/06/17 12:07:46;;;;;;;2.75;2.55;;;;;;;;;;10281915;28;20106;-59
2022/06/17 12:12:46;;;;;;;3.22;2.83;;;;;;;;;;10279255;28;20076;-60
2022/06/17 12:17:45;;;;;;;2.28;2.08;;;;;;;;;;10281250;28;20075;-59
2022/06/17 12:22:47;;;;;;;2.97;2.67;;;;;;;;;;10281035;28;20081;-60
2022/06/17 12:27:50;;;;;;;2.97;2.47;;;;;;;;;;10278921;28;20045;-60
2022/06/17 12:33:03;;;;;;;3.97;2.58;;;;;;;;;;10280226;28;20084;-61
2022/06/17 12:38:06;;;;;;;5.68;2.92;;;;;;;;;;10280243;28;20068;-61
2022/06/17 12:43:10;;;;;;;3.58;2.42;;;;;;;;;;10292714;28;20052;-60
2022/06/17 12:48:20;;;;;;;2.90;2.70;;;;;;;;;;10275890;28;20072;-58
2022/06/17 12:53:24;;;;;;;4.78;3.95;;;;;;;;;;10275555;28;20088;-59
2022/06/17 12:58:29;;;;;;;3.20;2.90;;;;;;;;;;10275558;28;20065;-58
2022/06/17 13:03:43;;;;;;;3.55;2.65;;;;;;;;;;10280042;28;20072;-59
2022/06/17 13:08:47;;;;;;;3.50;3.20;;;;;;;;;;10276704;28;20049;-58
2022/06/17 13:13:54;;;;;;;3.97;3.10;;;;;;;;;;10280582;28;20080;-59
2022/06/17 13:18:56;;;;;;;6.60;2.58;;;;;;;;;;10280366;28;20072;-60
2022/06/17 13:23:58;;;;;;;2.35;2.15;;;;;;;;;;10284477;28;20462;-60
2022/06/17 13:29:03;;;;;;;3.30;2.50;;;;;;;;;;10277567;28;20072;-60
2022/06/17 13:34:05;;;;;;;6.60;2.30;;;;;;;;;;10277095;28;20093;-60
2022/06/17 13:39:07;;;;;;;3.55;2.50;;;;;;;;;;10275669;28;20071;-60
2022/06/17 13:44:12;;;;;;;7.07;3.20;;;;;;;;;;10280176;28;20075;-62
2022/06/17 13:49:13;;;;;;;4.47;2.70;;;;;;;;;;10277349;28;20076;-60
2022/06/17 13:54:15;;;;;;;3.10;2.35;;;;;;;;;;10277119;28;20085;-60
2022/06/17 13:59:35;;;;;;;3.55;3.25;;;;;;;;;;10279996;28;20064;-60
2022/06/17 14:04:53;;;;;;;6.20;3.58;;;;;;;;;;10275748;28;20115;-60
2022/06/17 14:09:52;;;;;;;4.68;3.20;;;;;;;;;;10278286;28;20086;-59
2022/06/17 14:14:51;;;;;;;5.07;2.97;;;;;;;;;;10278207;28;20084;-59
2022/06/17 14:19:51;;;;;;;4.63;3.03;;;;;;;;;;10282250;28;20076;-60
2022/06/17 14:24:57;;;;;;;7.28;3.70;;;;;;;;;;10286125;28;20088;-60
2022/06/17 14:30:10;;;;;;;9.90;4.25;;;;;;;;;;10285541;28;20033;-60
2022/06/17 14:35:24;;;;;;;4.53;3.20;;;;;;;;;;10284554;28;20084;-60
2022/06/17 14:40:23;;;;;;;;;;;;;;;;;;10282889;28;20072;-60
2022/06/17 14:45:48;;;;;;;7.68;3.17;;;;;;;;;;10284864;28;19920;-60
2022/06/17 14:50:53;;;;;;;4.90;4.40;;;;;;;;;;10280010;28;20410;-60
2022/06/17 14:56:00;;;;;;;4.10;3.67;;;;;;;;;;10288281;28;20076;-60
2022/06/17 15:00:59;;;;;;;7.57;3.85;;;;;;;;;;10284031;28;20064;-59
2022/06/17 15:06:00;;;;;;;7.20;4.07;;;;;;;;;;10280464;28;20094;-60
2022/06/17 15:11:00;;;;;;;5.05;4.22;;;;;;;;;;10280567;28;20486;-60
2022/06/17 15:15:59;;;;;;;5.57;3.40;;;;;;;;;;10279850;28;20106;-60
2022/06/17 15:21:02;;;;;;;4.68;4.20;;;;;;;;;;10277761;28;20059;-60
2022/06/17 15:26:06;;;;;;;7.53;4.17;;;;;;;;;;10279770;28;20087;-60
2022/06/17 15:31:08;;;;;;;4.20;3.80;;;;;;;;;;10279163;28;20064;-59
2022/06/17 15:36:19;;;;;;;5.40;4.88;;;;;;;;;;10276337;28;20475;-60
2022/06/17 15:41:22;;;;;;;7.28;4.50;;;;;;;;;;10281773;28;20044;-60
2022/06/17 15:46:24;;;;;;;7.57;5.43;;;;;;;;;;10280101;28;20047;-59
2022/06/17 15:51:25;;;;;;;8.13;6.18;;;;;;;;;;10288176;28;20040;-60
2022/06/17 15:56:28;;;;;;;8.60;6.55;;;;;;;;;;10287798;28;20068;-59
2022/06/17 16:01:35;;;;;;;10.82;6.25;;;;;;;;;;10292902;28;20057;-59
2022/06/17 16:06:36;;;;;;;12.68;6.60;;;;;;;;;;10283255;28;20506;-59
2022/06/17 16:11:35;;;;;;;10.07;5.65;;;;;;;;;;10284410;28;20064;-58
2022/06/17 16:16:35;;;;;;;11.85;7.28;;;;;;;;;;10291030;28;20076;-59
2022/06/17 16:21:36;;;;;;;9.40;6.57;;;;;;;;;;10282859;28;20084;-59
2022/06/17 16:26:38;;;;;;;8.70;6.03;;;;;;;;;;10288070;28;20072;-59
2022/06/17 16:31:42;;;;;;;8.07;3.88;;;;;;;;;;10274875;28;20072;-58
2022/06/17 16:36:43;;;;;;;4.90;4.30;;;;;;;;;;10274194;28;20076;-58
2022/06/17 16:46:58;;;;;;;5.85;5.35;;;;;;;;;;10294730;28;20071;-59
2022/06/17 16:52:01;;;;;;;6.60;5.65;;;;;;;;;;10273276;28;20549;-59
2022/06/17 16:57:00;;;;;;;15.52;7.95;;;;;;;;;;10279839;28;20072;-58
2022/06/17 17:01:58;;;;;;;11.55;6.90;;;;;;;;;;10276387;28;20077;-58
2022/06/17 17:07:00;;;;;;;16.02;8.77;;;;;;;;;;10279343;28;20071;-59
2022/06/17 17:11:58;;;;;;;19.85;8.68;;;;;;;;;;10276102;28;20053;-60
2022/06/17 17:16:57;;;;;;;14.15;7.20;;;;;;;;;;10274943;28;20072;-60
2022/06/17 17:21:55;;;;;;;18.15;7.43;;;;;;;;;;10275283;28;20057;-60
2022/06/17 17:26:57;;;;;;;12.85;6.32;;;;;;;;;;10277007;28;20073;-59
2022/06/17 17:31:55;;;;;;;10.73;5.18;;;;;;;;;;10277072;28;20073;-59
2022/06/17 17:36:53;;;;;;;5.15;3.95;;;;;;;;;;10279027;28;20083;-59
2022/06/17 17:41:53;;;;;;;6.85;4.47;;;;;;;;;;10277812;28;20498;-59
2022/06/17 17:46:53;;;;;;;4.88;4.35;;;;;;;;;;10274454;28;20064;-59
2022/06/17 17:51:52;;;;;;;8.90;4.78;;;;;;;;;;10275415;28;20049;-61
2022/06/17 17:56:50;;;;;;;11.40;3.95;;;;;;;;;;10282884;28;20560;-61
2022/06/17 18:01:49;;;;;;;7.97;4.47;;;;;;;;;;10287167;28;20509;-59
2022/06/17 18:06:54;;;;;;;9.57;4.10;;;;;;;;;;10286856;28;20107;-59
2022/06/17 18:11:53;;;;;;;6.18;4.45;;;;;;;;;;10305170;28;20048;-57
2022/06/17 18:16:53;;;;;;;5.72;4.38;;;;;;;;;;10285579;28;20080;-59
2022/06/17 18:21:55;;;;;;;6.50;4.28;;;;;;;;;;10283326;28;20092;-59
2022/06/17 18:26:58;;;;;;;8.75;4.03;;;;;;;;;;10285984;28;20067;-59
2022/06/17 18:31:56;;;;;;;5.28;4.05;;;;;;;;;;10285341;28;20472;-59
2022/06/17 18:36:55;;;;;;;7.00;4.88;;;;;;;;;;10283066;28;20088;-59
2022/06/17 18:47:12;;;;;;;6.38;4.15;;;;;;;;;;10289276;28;20099;-60
2022/06/17 18:52:12;;;;;;;5.47;3.70;;;;;;;;;;10282519;28;20422;-63
2022/06/17 18:57:11;;;;;;;9.50;3.67;;;;;;;;;;10282263;28;20092;-59
2022/06/17 19:02:15;;;;;;;7.15;3.70;;;;;;;;;;10288857;28;20072;-58
2022/06/17 19:07:16;;;;;;;4.88;3.20;;;;;;;;;;10278469;28;20045;-59
2022/06/17 19:17:33;;;;;;;3.90;3.42;;;;;;;;;;10281532;28;20083;-59
2022/06/17 19:22:32;;;;;;;7.60;3.97;;;;;;;;;;10283456;28;20111;-59
2022/06/17 19:27:33;;;;;;;4.75;3.70;;;;;;;;;;10283781;28;20521;-59
2022/06/17 19:32:34;;;;;;;4.30;3.90;;;;;;;;;;10280224;28;20068;-60
2022/06/17 19:37:34;;;;;;;4.78;3.80;;;;;;;;;;10282663;28;20091;-59
2022/06/17 19:42:33;;;;;;;7.00;4.20;;;;;;;;;;10296159;28;20052;-59
2022/06/17 19:47:34;;;;;;;6.45;3.97;;;;;;;;;;10280472;28;20076;-58
2022/06/17 19:52:33;;;;;;;8.13;3.58;;;;;;;;;;10280416;28;20139;-58
2022/06/17 19:57:32;;;;;;;5.70;4.05;;;;;;;;;;10282612;28;20072;-58
2022/06/17 20:02:32;;;;;;;6.70;3.55;;;;;;;;;;10279558;28;20088;-59
2022/06/17 20:07:31;;;;;;;4.03;3.50;;;;;;;;;;10279479;28;20079;-58
2022/06/17 20:12:31;;;;;;;4.20;3.80;;;;;;;;;;10282017;28;20076;-59
2022/06/17 20:17:30;;;;;;;6.80;4.80;;;;;;;;;;10278742;28;20076;-59
2022/06/17 20:22:30;;;;;;;5.05;4.47;;;;;;;;;;10278190;28;20052;-59
2022/06/17 20:27:30;;;;;;;5.35;4.10;;;;;;;;;;10281812;28;20079;-59
2022/06/17 20:32:29;;;;;;;5.65;4.18;;;;;;;;;;10276928;28;20049;-59
2022/06/17 20:37:30;;;;;;;3.95;3.20;;;;;;;;;;10277213;28;20076;-59
2022/06/17 20:42:31;;;;;;;11.95;5.05;;;;;;;;;;10280835;28;20084;-58
2022/06/17 20:52:47;;;;;;;4.97;3.50;;;;;;;;;;10280260;28;20091;-59
2022/06/17 21:03:03;;;;;;;7.15;5.43;;;;;;;;;;10290929;28;20494;-59
2022/06/17 21:08:03;;;;;;;7.20;4.63;;;;;;;;;;10292182;28;20099;-60
2022/06/17 21:13:03;;;;;;;10.32;4.47;;;;;;;;;;10283666;28;20076;-60
2022/06/17 21:18:02;;;;;;;7.15;4.30;;;;;;;;;;10285519;28;20063;-58
2022/06/17 21:23:01;;;;;;;3.90;3.50;;;;;;;;;;10291603;28;21448;-58
2022/06/17 21:27:59;;;;;;;6.93;3.55;;;;;;;;;;10282929;28;20465;-57
2022/06/17 21:32:59;;;;;;;4.55;3.38;;;;;;;;;;10295454;28;20124;-58
2022/06/17 21:37:58;;;;;;;4.82;3.88;;;;;;;;;;10295522;28;20072;-58
2022/06/17 21:42:56;;;;;;;5.32;4.03;;;;;;;;;;10289975;28;20060;-59
2022/06/17 21:47:56;;;;;;;5.30;3.65;;;;;;;;;;10286800;28;20073;-59
2022/06/17 21:52:57;;;;;;;8.88;3.97;;;;;;;;;;10286162;28;20064;-58
2022/06/17 21:57:56;;;;;;;6.07;4.47;;;;;;;;;;10289138;28;20072;-59
2022/06/17 22:02:54;;;;;;;6.72;5.00;;;;;;;;;;10308036;28;20072;-59
2022/06/17 22:07:53;;;;;;;7.75;4.63;;;;;;;;;;10284420;28;20048;-59
2022/06/17 22:12:53;;;;;;;4.53;4.07;;;;;;;;;;10284233;28;20045;-58
2022/06/17 22:17:52;;;;;;;6.38;4.72;;;;;;;;;;10283877;28;20072;-58
2022/06/17 22:22:50;;;;;;;5.45;4.80;;;;;;;;;;10282022;28;20073;-58
2022/06/17 22:27:49;;;;;;;8.38;5.82;;;;;;;;;;10280693;28;20074;-59
2022/06/17 22:32:50;;;;;;;16.50;5.93;;;;;;;;;;10283236;28;20477;-59
2022/06/17 22:37:52;;;;;;;12.07;5.38;;;;;;;;;;10283061;28;20080;-59
2022/06/17 22:42:51;;;;;;;8.38;4.95;;;;;;;;;;10280106;28;20083;-60
2022/06/17 22:47:52;;;;;;;10.43;6.82;;;;;;;;;;10283254;28;20069;-59
2022/06/17 22:52:51;;;;;;;7.07;5.68;;;;;;;;;;10281742;28;20075;-59
2022/06/17 22:57:50;;;;;;;10.75;5.97;;;;;;;;;;10280015;28;20080;-59
2022/06/17 23:05:03;;;;;;;5.72;4.97;;;;;;;;;;10282624;28;20088;-59
2022/06/17 23:08:10;;;;;;;9.05;4.85;;;;;;;;;;10279946;28;20133;-60
2022/06/17 23:13:13;;;;;;;5.30;4.85;;;;;;;;;;10280568;28;20056;-60
2022/06/17 23:23:32;;;;;;;6.57;5.95;;;;;;;;;;10240374;28;1224176;-59
2022/06/17 23:28:30;;;;;;;6.97;5.35;;;;;;;;;;10280356;28;20080;-59
2022/06/17 23:33:31;;;;;;;7.13;5.90;;;;;;;;;;10283387;28;20494;-59
2022/06/17 23:38:31;;;;;;;5.70;5.20;;;;;;;;;;10281096;28;20087;-59
2022/06/17 23:43:29;;;;;;;5.28;4.88;;;;;;;;;;10279828;28;20056;-59
2022/06/17 23:48:29;;;;;;;5.70;5.13;;;;;;;;;;10283448;28;20092;-59
2022/06/17 23:53:30;;;;;;;7.10;5.30;;;;;;;;;;10279606;28;20041;-59
2022/06/17 23:58:31;;;;;;;6.40;4.50;;;;;;;;;;10282860;28;20088;-59
